Time;durP1;ratioP1;P1;durP2;ratioP2;P2;SDS_P1;SDS_P2;PMS_P1;PMS_P2;Temp;Humidity;BMP_temperature;BMP_pressure;BME280_temperature;BME280_humidity;BME280_pressure;Samples;Min_cycle;Max_cycle;Signal;HPM_P1;HPM_P2
2021/05/26 00:00:24;;;;;;;;;;;11.00;80.10;;;;;;5073489;28;19917;-74
2021/05/26 00:02:49;;;;;;;;;;;11.00;80.10;;;;;;5073623;28;19908;-74
2021/05/26 00:05:15;;;;;;;;;;;11.00;80.10;;;;;;5074131;28;19909;-74
2021/05/26 00:07:41;;;;;;;;;;;11.00;80.10;;;;;;5055596;28;19908;-74
2021/05/26 00:10:07;;;;;;;;;;;11.00;80.20;;;;;;5055928;28;19908;-74
2021/05/26 00:12:32;;;;;;;;;;;11.00;80.30;;;;;;5055367;28;20314;-74
2021/05/26 00:14:58;;;;;;;;;;;11.00;80.20;;;;;;5055451;28;19952;-74
2021/05/26 00:17:23;;;;;;;;;;;11.00;80.10;;;;;;5073509;28;19915;-74
2021/05/26 00:19:49;;;;;;;;;;;11.10;80.00;;;;;;5073348;28;20417;-74
2021/05/26 00:22:15;;;;;;;;;;;11.10;79.90;;;;;;5055438;28;20425;-74
2021/05/26 00:24:40;;;;;;;;;;;11.10;79.80;;;;;;5073342;28;19909;-74
2021/05/26 00:27:06;;;;;;;;;;;11.10;79.70;;;;;;5055424;28;19909;-74
2021/05/26 00:29:31;;;;;;;;;;;11.10;79.60;;;;;;5055408;28;20348;-74
2021/05/26 00:31:57;;;;;;;;;;;11.20;79.50;;;;;;5074018;28;20271;-74
2021/05/26 00:34:22;;;;;;;;;;;11.20;79.50;;;;;;5073339;28;19908;-74
2021/05/26 00:36:48;;;;;;;;;;;11.20;79.40;;;;;;5055139;28;19923;-74
2021/05/26 00:39:13;;;;;;;;;;;11.20;79.30;;;;;;5055249;28;19908;-74
2021/05/26 00:41:39;;;;;;;;;;;11.20;79.30;;;;;;5055174;28;19908;-74
2021/05/26 00:44:05;;;;;;;;;;;11.10;79.30;;;;;;5073673;28;19912;-74
2021/05/26 00:46:38;;;;;;;;;;;11.10;79.80;;;;;;5055236;28;19986;-74
2021/05/26 00:49:04;;;;;;;;;;;11.00;79.00;;;;;;5055967;28;19905;-74
2021/05/26 00:51:29;;;;;;;;;;;10.90;78.90;;;;;;5059087;28;19998;-74
2021/05/26 00:53:54;;;;;;;;;;;10.90;78.70;;;;;;5076958;28;19904;-74
2021/05/26 00:56:20;;;;;;;;;;;10.80;78.70;;;;;;5077150;28;19954;-74
2021/05/26 00:58:46;;;;;;;;;;;10.80;78.60;;;;;;5058940;28;20275;-74
2021/05/26 01:01:11;;;;;;;;;;;10.80;78.70;;;;;;5076888;28;19973;-74
2021/05/26 01:03:36;;;;;;;;;;;10.80;78.60;;;;;;5058876;28;19980;-74
2021/05/26 01:06:02;;;;;;;;;;;10.80;78.60;;;;;;5058800;28;20392;-74
2021/05/26 01:08:28;;;;;;;;;;;10.80;78.60;;;;;;5058816;28;19950;-74
2021/05/26 01:10:53;;;;;;;;;;;10.80;78.60;;;;;;5058715;28;19904;-74
2021/05/26 01:13:22;;;;;;;;;;;10.70;78.60;;;;;;5058685;28;19904;-74
2021/05/26 01:15:48;;;;;;;;;;;10.70;78.70;;;;;;5076511;28;19911;-74
2021/05/26 01:18:30;;;;;;;;;;;10.70;78.70;;;;;;5076609;28;19904;-74
2021/05/26 01:20:57;;;;;;;;;;;10.70;78.80;;;;;;5076702;28;19908;-74
2021/05/26 01:23:23;;;;;;;;;;;10.70;79.00;;;;;;5077096;28;20046;-74
2021/05/26 01:25:56;;;;;;;;;;;10.60;79.00;;;;;;5058505;28;20371;-74
2021/05/26 01:28:22;;;;;;;;;;;10.70;79.10;;;;;;5058459;28;19990;-74
2021/05/26 01:30:48;;;;;;;;;;;10.70;79.10;;;;;;5076269;28;20287;-74
2021/05/26 01:33:14;;;;;;;;;;;10.70;79.00;;;;;;5076925;28;19905;-74
2021/05/26 01:35:40;;;;;;;;;;;10.70;79.20;;;;;;5076259;28;19999;-74
2021/05/26 01:38:06;;;;;;;;;;;10.70;79.20;;;;;;5076068;28;20002;-75
2021/05/26 01:40:32;;;;;;;;;;;10.60;79.20;;;;;;5058157;28;19955;-75
2021/05/26 01:42:57;;;;;;;;;;;10.70;80.20;;;;;;5058386;28;19908;-75
2021/05/26 01:45:23;;;;;;;;;;;10.60;79.90;;;;;;5076117;28;20326;-74
2021/05/26 01:47:49;;;;;;;;;;;10.60;80.50;;;;;;5076092;28;19905;-75
2021/05/26 01:50:21;;;;;;;;;;;10.60;80.80;;;;;;5058187;28;19911;-75
2021/05/26 01:53:07;;;;;;;;;;;10.50;80.90;;;;;;5076228;28;19905;-75
2021/05/26 01:55:33;;;;;;;;;;;10.50;81.10;;;;;;5057349;28;19924;-75
2021/05/26 01:57:59;;;;;;;;;;;10.40;81.30;;;;;;5057979;28;19911;-75
2021/05/26 02:00:25;;;;;;;;;;;10.40;81.30;;;;;;5075796;28;20006;-75
2021/05/26 02:02:51;;;;;;;;;;;10.40;81.30;;;;;;5057812;28;19947;-75
2021/05/26 02:05:16;;;;;;;;;;;10.40;81.50;;;;;;5057840;28;19911;-75
2021/05/26 02:07:42;;;;;;;;;;;10.40;81.40;;;;;;5057754;28;19923;-75
2021/05/26 02:10:09;;;;;;;;;;;10.40;81.60;;;;;;5057761;28;20352;-75
2021/05/26 02:12:36;;;;;;;;;;;10.40;81.50;;;;;;5057575;28;19904;-75
2021/05/26 02:15:02;;;;;;;;;;;10.40;81.70;;;;;;5075637;28;20275;-75
2021/05/26 02:17:28;;;;;;;;;;;10.40;81.80;;;;;;5057659;28;19908;-75
2021/05/26 02:19:53;;;;;;;;;;;10.40;81.70;;;;;;5075356;28;19962;-75
2021/05/26 02:22:19;;;;;;;;;;;10.40;81.70;;;;;;5075548;28;19904;-75
2021/05/26 02:24:45;;;;;;;;;;;10.40;81.70;;;;;;5057414;28;20311;-74
2021/05/26 02:27:11;;;;;;;;;;;10.40;81.80;;;;;;5075410;28;19999;-75
2021/05/26 02:29:37;;;;;;;;;;;10.40;81.90;;;;;;5057353;28;20343;-75
2021/05/26 02:32:03;;;;;;;;;;;10.40;81.90;;;;;;5075237;28;19961;-75
2021/05/26 02:34:28;;;;;;;;;;;10.40;81.80;;;;;;5057294;28;19904;-75
2021/05/26 02:36:54;;;;;;;;;;;10.40;81.90;;;;;;5057015;28;19969;-75
2021/05/26 02:39:20;;;;;;;;;;;10.40;81.80;;;;;;5075138;28;19904;-75
2021/05/26 02:41:45;;;;;;;;;;;10.40;81.70;;;;;;5074912;28;19948;-75
2021/05/26 02:44:11;;;;;;;;;;;10.50;81.70;;;;;;5075188;28;20009;-75
2021/05/26 02:46:37;;;;;;;;;;;10.50;81.60;;;;;;5056970;28;19919;-75
2021/05/26 02:49:04;;;;;;;;;;;10.60;81.80;;;;;;5074842;28;20360;-75
2021/05/26 02:51:30;;;;;;;;;;;10.60;81.80;;;;;;5074871;28;20248;-75
2021/05/26 02:53:56;;;;;;;;;;;10.60;81.80;;;;;;5056543;28;19904;-75
2021/05/26 02:56:21;;;;;;;;;;;10.60;81.70;;;;;;5056483;28;19935;-75
2021/05/26 02:58:47;;;;;;;;;;;10.60;81.80;;;;;;5074257;28;19904;-75
2021/05/26 03:01:12;;;;;;;;;;;10.60;81.80;;;;;;5056194;28;20411;-75
2021/05/26 03:03:38;;;;;;;;;;;10.50;81.80;;;;;;5074254;28;19904;-75
2021/05/26 03:06:03;;;;;;;;;;;10.50;81.90;;;;;;5056261;28;19931;-75
2021/05/26 03:08:29;;;;;;;;;;;10.50;82.00;;;;;;5074276;28;19909;-75
2021/05/26 03:10:58;;;;;;;;;;;10.50;82.00;;;;;;5056259;28;19904;-75
2021/05/26 03:13:24;;;;;;;;;;;10.50;82.10;;;;;;5073449;28;19978;-75
2021/05/26 03:15:50;;;;;;;;;;;10.50;82.10;;;;;;5056023;28;20275;-75
2021/05/26 03:18:17;;;;;;;;;;;10.40;82.20;;;;;;5074260;28;19905;-75
2021/05/26 03:20:42;;;;;;;;;;;10.40;82.40;;;;;;5073945;28;19945;-75
2021/05/26 03:23:08;;;;;;;;;;;10.30;82.40;;;;;;5073944;28;19916;-75
2021/05/26 03:25:34;;;;;;;;;;;10.30;82.40;;;;;;5073808;28;20348;-75
2021/05/26 03:27:59;;;;;;;;;;;10.30;82.40;;;;;;5055867;28;20368;-75
2021/05/26 03:30:25;;;;;;;;;;;10.30;82.50;;;;;;5073795;28;20046;-75
2021/05/26 03:32:50;;;;;;;;;;;10.40;82.60;;;;;;5055799;28;19904;-75
2021/05/26 03:35:16;;;;;;;;;;;10.30;82.50;;;;;;5074051;28;19920;-74
2021/05/26 03:37:42;;;;;;;;;;;10.40;82.60;;;;;;5073390;28;20424;-75
2021/05/26 03:40:09;;;;;;;;;;;10.40;82.60;;;;;;5073971;28;19912;-75
2021/05/26 03:42:34;;;;;;;;;;;10.40;82.70;;;;;;5073650;28;19912;-75
2021/05/26 03:45:00;;;;;;;;;;;10.40;82.60;;;;;;5055682;28;19973;-75
2021/05/26 03:47:26;;;;;;;;;;;10.50;82.80;;;;;;5055696;28;19909;-75
2021/05/26 03:49:51;;;;;;;;;;;10.50;82.80;;;;;;5055439;28;19909;-75
2021/05/26 03:52:17;;;;;;;;;;;10.50;82.70;;;;;;5055612;28;19970;-75
2021/05/26 03:54:42;;;;;;;;;;;10.50;82.60;;;;;;5073581;28;19951;-75
2021/05/26 03:57:08;;;;;;;;;;;10.60;82.60;;;;;;5073613;28;19908;-74
2021/05/26 03:59:33;;;;;;;;;;;10.60;82.60;;;;;;5055422;28;19909;-75
2021/05/26 04:01:59;;;;;;;;;;;10.60;82.70;;;;;;5073466;28;19908;-74
2021/05/26 04:04:24;;;;;;;;;;;10.60;82.60;;;;;;5073491;28;19908;-75
2021/05/26 04:06:50;;;;;;;;;;;10.60;82.60;;;;;;5055549;28;19912;-75
2021/05/26 04:09:17;;;;;;;;;;;10.70;82.60;;;;;;5055462;28;19962;-75
2021/05/26 04:11:43;;;;;;;;;;;10.70;82.50;;;;;;5055288;28;19912;-75
2021/05/26 04:14:08;;;;;;;;;;;10.70;82.50;;;;;;5055429;28;19908;-74
2021/05/26 04:16:34;;;;;;;;;;;10.70;82.40;;;;;;5073458;28;19909;-75
2021/05/26 04:18:59;;;;;;;;;;;10.80;82.50;;;;;;5073402;28;19945;-75
2021/05/26 04:21:25;;;;;;;;;;;10.80;82.50;;;;;;5073246;28;19919;-75
2021/05/26 04:23:51;;;;;;;;;;;10.90;82.50;;;;;;5073668;28;19998;-75
2021/05/26 04:26:16;;;;;;;;;;;10.90;82.50;;;;;;5059312;28;20260;-75
2021/05/26 04:28:44;;;;;;;;;;;10.90;82.50;;;;;;5059289;28;19915;-75
2021/05/26 04:31:10;;;;;;;;;;;10.90;82.50;;;;;;5059308;28;19963;-75
2021/05/26 04:33:36;;;;;;;;;;;10.90;82.50;;;;;;5059330;28;20287;-75
2021/05/26 04:36:01;;;;;;;;;;;10.90;82.50;;;;;;5077302;28;19919;-75
2021/05/26 04:38:27;;;;;;;;;;;11.00;82.50;;;;;;5077391;28;19922;-75
2021/05/26 04:40:52;;;;;;;;;;;11.00;82.40;;;;;;5058953;28;19951;-75
2021/05/26 04:43:19;;;;;;;;;;;11.00;82.50;;;;;;5077006;28;19908;-75
2021/05/26 04:45:45;;;;;;;;;;;11.00;82.70;;;;;;5058862;28;19962;-75
2021/05/26 04:48:10;;;;;;;;;;;11.00;82.60;;;;;;5077092;28;19908;-74
2021/05/26 04:50:37;;;;;;;;;;;11.00;82.70;;;;;;5076807;28;19908;-74
2021/05/26 04:53:02;;;;;;;;;;;11.00;82.70;;;;;;5058819;28;20318;-74
2021/05/26 04:55:28;;;;;;;;;;;11.00;82.60;;;;;;5058891;28;19928;-75
2021/05/26 04:58:11;;;;;;;;;;;11.00;82.60;;;;;;5058775;28;19923;-75
2021/05/26 05:00:37;;;;;;;;;;;11.00;82.60;;;;;;5058765;28;19962;-75
2021/05/26 05:03:03;;;;;;;;;;;11.00;82.50;;;;;;5076686;28;19916;-75
2021/05/26 05:05:34;;;;;;;;;;;11.10;82.60;;;;;;5076670;28;19995;-75
2021/05/26 05:08:00;;;;;;;;;;;11.10;82.50;;;;;;5058701;28;19909;-75
2021/05/26 05:10:25;;;;;;;;;;;11.10;82.70;;;;;;5058613;28;20020;-74
2021/05/26 05:12:51;;;;;;;;;;;11.10;82.60;;;;;;5076550;28;19908;-75
2021/05/26 05:15:16;;;;;;;;;;;11.10;82.60;;;;;;5076483;28;19961;-75
2021/05/26 05:17:45;;;;;;;;;;;11.10;82.60;;;;;;5058496;28;20259;-74
2021/05/26 05:20:11;;;;;;;;;;;11.10;82.60;;;;;;5058259;28;20006;-74
2021/05/26 05:22:36;;;;;;;;;;;11.10;82.50;;;;;;5076223;28;20351;-74
2021/05/26 05:25:02;;;;;;;;;;;11.00;82.50;;;;;;5076315;28;19920;-74
2021/05/26 05:27:27;;;;;;;;;;;11.10;82.50;;;;;;5058320;28;19947;-75
2021/05/26 05:29:53;;;;;;;;;;;11.10;82.60;;;;;;5076240;28;19908;-75
2021/05/26 05:32:18;;;;;;;;;;;11.10;82.50;;;;;;5076248;28;19909;-75
2021/05/26 05:34:44;;;;;;;;;;;11.10;82.50;;;;;;5075637;28;19908;-75
2021/05/26 05:37:09;;;;;;;;;;;11.10;82.20;;;;;;5075930;28;19939;-75
2021/05/26 05:39:35;;;;;;;;;;;11.20;82.20;;;;;;5076024;28;19909;-75
2021/05/26 05:42:00;;;;;;;;;;;11.30;82.10;;;;;;5057987;28;20321;-74
2021/05/26 05:44:26;;;;;;;;;;;11.30;82.00;;;;;;5075953;28;19909;-74
2021/05/26 05:46:52;;;;;;;;;;;11.30;82.00;;;;;;5076125;28;19958;-75
2021/05/26 05:49:17;;;;;;;;;;;11.40;81.90;;;;;;5075894;28;19958;-75
2021/05/26 05:51:42;;;;;;;;;;;11.40;81.80;;;;;;5057651;28;19952;-74
2021/05/26 05:54:08;;;;;;;;;;;11.40;81.80;;;;;;5057581;28;20002;-74
2021/05/26 05:56:34;;;;;;;;;;;11.40;81.70;;;;;;5057335;28;20279;-75
2021/05/26 05:58:59;;;;;;;;;;;11.40;81.70;;;;;;5076125;28;19991;-74
2021/05/26 06:01:25;;;;;;;;;;;11.40;81.70;;;;;;5075359;28;19952;-74
2021/05/26 06:03:50;;;;;;;;;;;11.40;81.60;;;;;;5075220;28;19974;-73
2021/05/26 06:06:16;;;;;;;;;;;11.50;81.60;;;;;;5075282;28;19966;-74
2021/05/26 06:08:41;;;;;;;;;;;11.50;81.60;;;;;;5075262;28;19987;-74
2021/05/26 06:11:08;;;;;;;;;;;11.40;81.50;;;;;;5075300;28;19908;-73
2021/05/26 06:13:34;;;;;;;;;;;11.50;81.50;;;;;;5075013;28;19908;-74
2021/05/26 06:15:59;;;;;;;;;;;11.50;81.40;;;;;;5056916;28;19908;-74
2021/05/26 06:18:25;;;;;;;;;;;11.50;81.40;;;;;;5056970;28;19916;-75
2021/05/26 06:20:50;;;;;;;;;;;11.50;81.40;;;;;;5056846;28;20632;-73
2021/05/26 06:23:16;;;;;;;;;;;11.50;81.40;;;;;;5075013;28;19909;-73
2021/05/26 06:25:41;;;;;;;;;;;11.50;81.30;;;;;;5074801;28;20233;-73
2021/05/26 06:28:07;;;;;;;;;;;11.50;81.30;;;;;;5074894;28;19912;-74
2021/05/26 06:30:32;;;;;;;;;;;11.50;81.40;;;;;;5074734;28;19953;-73
2021/05/26 06:32:58;;;;;;;;;;;11.60;81.30;;;;;;5056864;28;19916;-73
2021/05/26 06:35:23;;;;;;;;;;;11.50;81.20;;;;;;5074868;28;20220;-72
2021/05/26 06:37:49;;;;;;;;;;;11.50;81.30;;;;;;5056542;28;19928;-74
2021/05/26 06:40:15;;;;;;;;;;;11.50;81.40;;;;;;5056710;28;19924;-73
2021/05/26 06:42:40;;;;;;;;;;;11.50;81.40;;;;;;5074591;28;19989;-74
2021/05/26 06:45:06;;;;;;;;;;;11.50;81.40;;;;;;5074593;28;19908;-73
2021/05/26 06:47:32;;;;;;;;;;;11.50;81.40;;;;;;5073598;28;19954;-72
2021/05/26 06:49:57;;;;;;;;;;;11.40;81.40;;;;;;5056418;28;20360;-72
2021/05/26 06:52:23;;;;;;;;;;;11.50;81.50;;;;;;5056438;28;19931;-73
2021/05/26 06:54:48;;;;;;;;;;;11.50;81.40;;;;;;5074276;28;19916;-72
2021/05/26 06:57:14;;;;;;;;;;;11.60;81.40;;;;;;5056310;28;19966;-73
2021/05/26 06:59:40;;;;;;;;;;;11.70;81.40;;;;;;5074168;28;19970;-73
2021/05/26 07:02:05;;;;;;;;;;;11.80;81.20;;;;;;5074621;28;19908;-73
2021/05/26 07:04:31;;;;;;;;;;;11.80;81.10;;;;;;5056222;28;19908;-73
2021/05/26 07:06:56;;;;;;;;;;;12.00;81.10;;;;;;5056020;28;19963;-73
2021/05/26 07:09:22;;;;;;;;;;;12.10;80.60;;;;;;5074048;28;20440;-74
2021/05/26 07:11:47;;;;;;;;;;;12.10;80.40;;;;;;5073708;28;19939;-72
2021/05/26 07:14:13;;;;;;;;;;;12.10;80.00;;;;;;5055909;28;19949;-74
2021/05/26 07:16:38;;;;;;;;;;;12.20;80.00;;;;;;5056002;28;19915;-73
2021/05/26 07:19:04;;;;;;;;;;;12.20;80.10;;;;;;5055986;28;20368;-78
2021/05/26 07:21:29;;;;;;;;;;;12.30;80.00;;;;;;5073783;28;19912;-72
2021/05/26 07:23:55;;;;;;;;;;;12.40;79.90;;;;;;5055714;28;19908;-73
2021/05/26 07:26:22;;;;;;;;;;;12.50;79.60;;;;;;5073746;28;20013;-73
2021/05/26 07:28:47;;;;;;;;;;;12.50;79.30;;;;;;5055785;28;20006;-72
2021/05/26 07:31:13;;;;;;;;;;;12.50;79.50;;;;;;5073640;28;20394;-72
2021/05/26 07:33:38;;;;;;;;;;;12.60;79.50;;;;;;5073624;28;20390;-72
2021/05/26 07:36:04;;;;;;;;;;;12.70;79.30;;;;;;5074063;28;19916;-72
2021/05/26 07:38:29;;;;;;;;;;;12.70;79.20;;;;;;5073566;28;19916;-72
2021/05/26 07:40:55;;;;;;;;;;;12.70;79.20;;;;;;5055467;28;20291;-72
2021/05/26 07:43:21;;;;;;;;;;;12.80;79.20;;;;;;5073493;28;19916;-72
2021/05/26 07:45:47;;;;;;;;;;;12.80;79.00;;;;;;5055447;28;19915;-72
2021/05/26 07:48:12;;;;;;;;;;;12.80;79.00;;;;;;5055558;28;19920;-72
2021/05/26 07:50:38;;;;;;;;;;;12.70;78.90;;;;;;5073460;28;20283;-72
2021/05/26 07:53:04;;;;;;;;;;;12.70;79.00;;;;;;5073507;28;20248;-72
2021/05/26 07:55:29;;;;;;;;;;;12.80;78.90;;;;;;5073740;28;19908;-71
2021/05/26 07:57:55;;;;;;;;;;;12.90;78.80;;;;;;5073161;28;19916;-73
2021/05/26 08:00:20;;;;;;;;;;;13.00;78.20;;;;;;5073656;28;19942;-72
2021/05/26 08:02:46;;;;;;;;;;;13.00;77.80;;;;;;5073224;28;19909;-71
2021/05/26 08:05:12;;;;;;;;;;;13.00;78.00;;;;;;5055571;28;20043;-71
2021/05/26 08:07:38;;;;;;;;;;;13.20;77.90;;;;;;5055193;28;19909;-72
2021/05/26 08:10:05;;;;;;;;;;;13.20;77.70;;;;;;5073490;28;20331;-72
2021/05/26 08:12:31;;;;;;;;;;;13.30;77.50;;;;;;5073302;28;19916;-72
2021/05/26 08:14:56;;;;;;;;;;;13.40;77.60;;;;;;5055272;28;19912;-73
2021/05/26 08:17:22;;;;;;;;;;;13.40;77.30;;;;;;5073246;28;19928;-72
2021/05/26 08:19:47;;;;;;;;;;;13.50;76.80;;;;;;5073033;28;19908;-73
2021/05/26 08:22:13;;;;;;;;;;;13.50;76.70;;;;;;5055015;28;19934;-72
2021/05/26 08:24:38;;;;;;;;;;;13.50;76.70;;;;;;5072961;28;19973;-72
2021/05/26 08:27:04;;;;;;;;;;;13.60;76.70;;;;;;5055102;28;20264;-72
2021/05/26 08:29:32;;;;;;;;;;;13.50;76.20;;;;;;5055194;28;19909;-72
2021/05/26 08:31:58;;;;;;;;;;;13.50;76.20;;;;;;5073007;28;20302;-73
2021/05/26 08:34:24;;;;;;;;;;;13.50;76.10;;;;;;5073216;28;19908;-72
2021/05/26 08:36:49;;;;;;;;;;;13.40;76.20;;;;;;5072828;28;20360;-72
2021/05/26 08:39:15;;;;;;;;;;;13.40;76.20;;;;;;5054766;28;20325;-73
2021/05/26 08:41:41;;;;;;;;;;;13.40;76.40;;;;;;5072752;28;19913;-73
2021/05/26 08:44:07;;;;;;;;;;;13.40;76.10;;;;;;5054526;28;19909;-72
2021/05/26 08:46:35;;;;;;;;;;;13.40;75.70;;;;;;5054925;28;20308;-73
2021/05/26 08:49:03;;;;;;;;;;;13.40;75.70;;;;;;5054847;28;19915;-73
2021/05/26 08:51:30;;;;;;;;;;;13.50;75.90;;;;;;5054773;28;19995;-73
2021/05/26 08:53:56;;;;;;;;;;;13.50;75.90;;;;;;5072671;28;19912;-72
2021/05/26 08:56:21;;;;;;;;;;;13.60;75.40;;;;;;5072551;28;20330;-73
2021/05/26 08:58:47;;;;;;;;;;;13.60;75.40;;;;;;5072650;28;19912;-73
2021/05/26 09:01:13;;;;;;;;;;;13.60;75.30;;;;;;5054879;28;19916;-72
2021/05/26 09:03:38;;;;;;;;;;;13.60;76.00;;;;;;5072974;28;19995;-73
2021/05/26 09:06:10;;;;;;;;;;;13.70;75.40;;;;;;5072759;28;19920;-71
2021/05/26 09:08:44;;;;;;;;;;;13.80;75.40;;;;;;5072507;28;19954;-71
2021/05/26 09:11:09;;;;;;;;;;;14.00;75.20;;;;;;5074885;28;19908;-72
2021/05/26 09:13:36;;;;;;;;;;;14.10;74.80;;;;;;5076034;28;19908;-73
2021/05/26 09:16:03;;;;;;;;;;;14.20;74.20;;;;;;5076242;28;19986;-73
2021/05/26 09:18:28;;;;;;;;;;;14.20;73.40;;;;;;5076155;28;20253;-73
2021/05/26 09:20:56;;;;;;;;;;;14.20;73.40;;;;;;5075906;28;19927;-73
2021/05/26 09:23:28;;;;;;;;;;;14.30;73.50;;;;;;5058131;28;20356;-73
2021/05/26 09:25:55;;;;;;;;;;;14.50;73.20;;;;;;5057950;28;19915;-73
2021/05/26 09:28:21;;;;;;;;;;;14.60;72.90;;;;;;5076002;28;20279;-72
2021/05/26 09:30:56;;;;;;;;;;;14.80;72.70;;;;;;5075748;28;19934;-73
2021/05/26 09:33:24;;;;;;;;;;;14.90;72.00;;;;;;5057916;28;19944;-73
2021/05/26 09:36:13;;;;;;;;;;;14.90;71.60;;;;;;5076528;28;20340;-73
2021/05/26 09:38:41;;;;;;;;;;;14.90;72.10;;;;;;5062419;28;19943;-73
2021/05/26 09:41:08;;;;;;;;;;;14.90;71.60;;;;;;5076100;28;19912;-73
2021/05/26 09:43:40;;;;;;;;;;;14.80;70.60;;;;;;5075899;28;20417;-72
2021/05/26 09:46:35;;;;;;;;;;;14.70;70.20;;;;;;5075851;28;19912;-73
2021/05/26 09:49:01;;;;;;;;;;;14.60;70.80;;;;;;5054531;28;19908;-73
2021/05/26 09:51:27;;;;;;;;;;;14.60;70.80;;;;;;5075676;28;19914;-73
2021/05/26 09:54:11;;;;;;;;;;;14.70;70.40;;;;;;5075481;28;19910;-73
2021/05/26 09:56:37;;;;;;;;;;;14.70;69.80;;;;;;5057380;28;19908;-73
2021/05/26 09:59:06;;;;;;;;;;;14.80;70.10;;;;;;5057354;28;20003;-73
2021/05/26 10:01:32;;;;;;;;;;;14.90;69.40;;;;;;5057286;28;19966;-73
2021/05/26 10:03:58;;;;;;;;;;;14.90;68.90;;;;;;5075485;28;19908;-73
2021/05/26 10:06:24;;;;;;;;;;;14.90;67.10;;;;;;5075314;28;19958;-73
2021/05/26 10:08:50;;;;;;;;;;;14.90;67.40;;;;;;5057126;28;19959;-73
2021/05/26 10:11:16;;;;;;;;;;;14.90;66.80;;;;;;5057234;28;19916;-73
2021/05/26 10:13:43;;;;;;;;;;;15.00;67.70;;;;;;5075013;28;20291;-73
2021/05/26 10:16:09;;;;;;;;;;;15.00;66.70;;;;;;5057022;28;20286;-73
2021/05/26 10:18:36;;;;;;;;;;;15.10;66.60;;;;;;5056882;28;19996;-73
2021/05/26 10:21:02;;;;;;;;;;;15.10;67.00;;;;;;5057070;28;20030;-73
2021/05/26 10:23:28;;;;;;;;;;;15.10;67.10;;;;;;5056985;28;20291;-73
2021/05/26 10:25:54;;;;;;;;;;;15.00;64.70;;;;;;5074813;28;19908;-73
2021/05/26 10:28:26;;;;;;;;;;;14.80;64.70;;;;;;5056937;28;19908;-73
2021/05/26 10:30:52;;;;;;;;;;;14.40;64.30;;;;;;5075035;28;19999;-73
2021/05/26 10:33:18;;;;;;;;;;;14.10;65.70;;;;;;5074724;28;20425;-72
2021/05/26 10:35:54;;;;;;;;;;;13.80;66.50;;;;;;5074937;28;19915;-72
2021/05/26 10:38:19;;;;;;;;;;;13.50;68.40;;;;;;5056714;28;19923;-73
2021/05/26 10:40:56;;;;;;;;;;;13.10;70.10;;;;;;5056839;28;19912;-74
2021/05/26 10:43:22;;;;;;;;;;;12.70;71.20;;;;;;5074689;28;19916;-74
2021/05/26 10:45:53;;;;;;;;;;;12.40;72.60;;;;;;5056525;28;19909;-73
2021/05/26 10:48:37;;;;;;;;;;;12.10;74.50;;;;;;5074621;28;19987;-73
2021/05/26 10:51:03;;;;;;;;;;;11.70;75.40;;;;;;5074600;28;19916;-73
2021/05/26 10:53:39;;;;;;;;;;;11.50;76.30;;;;;;5056229;28;19908;-74
2021/05/26 10:56:04;;;;;;;;;;;11.30;76.90;;;;;;5056371;28;19916;-74
2021/05/26 10:58:41;;;;;;;;;;;11.20;77.30;;;;;;5074435;28;19908;-74
2021/05/26 11:01:08;;;;;;;;;;;11.20;78.10;;;;;;5056342;28;19912;-74
2021/05/26 11:03:34;;;;;;;;;;;11.20;77.60;;;;;;5056239;28;19908;-74
2021/05/26 11:06:13;;;;;;;;;;;11.30;77.40;;;;;;5074733;28;19909;-72
2021/05/26 11:08:48;;;;;;;;;;;11.30;77.50;;;;;;5056237;28;20352;-73
2021/05/26 11:11:26;;;;;;;;;;;11.20;77.70;;;;;;5056284;28;19948;-73
2021/05/26 11:13:58;;;;;;;;;;;11.30;78.00;;;;;;5074057;28;20299;-73
2021/05/26 11:16:35;;;;;;;;;;;11.40;77.90;;;;;;5056111;28;19923;-74
2021/05/26 11:19:09;;;;;;;;;;;11.60;77.80;;;;;;5073948;28;19912;-74
2021/05/26 11:21:34;;;;;;;;;;;11.80;77.40;;;;;;5074236;28;19927;-74
2021/05/26 11:24:00;;;;;;;;;;;12.00;77.00;;;;;;5055988;28;19909;-73
2021/05/26 11:26:32;;;;;;;;;;;12.10;76.70;;;;;;5073854;28;19931;-74
2021/05/26 11:28:58;;;;;;;;;;;12.30;76.80;;;;;;5073842;28;19954;-73
2021/05/26 11:31:23;;;;;;;;;;;12.40;76.80;;;;;;5073806;28;19908;-72
2021/05/26 11:33:55;;;;;;;;;;;12.50;77.10;;;;;;5055358;28;20279;-74
2021/05/26 11:36:39;;;;;;;;;;;12.70;76.70;;;;;;5074008;28;19909;-73
2021/05/26 11:39:16;;;;;;;;;;;12.80;76.40;;;;;;5053724;28;20438;-73
2021/05/26 11:41:42;;;;;;;;;;;13.00;76.40;;;;;;5035623;28;20082;-73
2021/05/26 11:44:08;;;;;;;;;;;13.00;76.00;;;;;;5035973;28;20395;-73
2021/05/26 11:46:34;;;;;;;;;;;13.00;76.10;;;;;;5035623;28;19908;-73
2021/05/26 11:49:07;;;;;;;;;;;13.00;76.10;;;;;;5035492;28;20315;-73
2021/05/26 11:51:37;;;;;;;;;;;13.00;76.20;;;;;;5035438;28;19912;-73
2021/05/26 11:54:03;;;;;;;;;;;13.00;76.10;;;;;;5035526;28;19935;-74
2021/05/26 11:56:28;;;;;;;;;;;13.10;76.30;;;;;;5053423;28;19909;-74
2021/05/26 11:58:54;;;;;;;;;;;13.10;76.40;;;;;;5053269;28;19913;-75
2021/05/26 12:01:27;;;;;;;;;;;13.20;76.40;;;;;;5052997;28;19978;-74
2021/05/26 12:03:53;;;;;;;;;;;13.10;76.60;;;;;;5053053;28;19999;-74
2021/05/26 12:06:19;;;;;;;;;;;13.10;76.60;;;;;;5035131;28;19950;-74
2021/05/26 12:08:44;;;;;;;;;;;13.10;76.80;;;;;;5035008;28;19915;-73
2021/05/26 12:11:11;;;;;;;;;;;13.10;76.80;;;;;;5053190;28;19904;-75
2021/05/26 12:13:41;;;;;;;;;;;13.10;77.20;;;;;;5053040;28;19905;-75
2021/05/26 12:16:17;;;;;;;;;;;13.10;77.10;;;;;;5035546;28;19948;-74
2021/05/26 12:18:53;;;;;;;;;;;13.20;77.30;;;;;;5052882;28;20006;-73
2021/05/26 12:21:30;;;;;;;;;;;13.40;77.10;;;;;;5052819;28;19909;-75
2021/05/26 12:24:00;;;;;;;;;;;13.70;77.00;;;;;;5052837;28;19905;-75
2021/05/26 12:26:25;;;;;;;;;;;13.90;76.70;;;;;;5034959;28;19912;-75
2021/05/26 12:28:52;;;;;;;;;;;14.20;76.50;;;;;;5034947;28;20272;-74
2021/05/26 12:31:18;;;;;;;;;;;14.60;76.20;;;;;;5052883;28;19905;-74
2021/05/26 12:33:48;;;;;;;;;;;14.90;75.60;;;;;;5034994;28;19930;-74
2021/05/26 12:36:14;;;;;;;;;;;15.00;73.70;;;;;;5052841;28;19908;-74
2021/05/26 12:38:42;;;;;;;;;;;15.10;73.10;;;;;;5069316;28;20003;-73
2021/05/26 12:41:21;;;;;;;;;;;15.20;72.60;;;;;;5072825;28;20003;-74
2021/05/26 12:43:47;;;;;;;;;;;15.20;71.60;;;;;;5072883;28;19904;-74
2021/05/26 12:46:32;;;;;;;;;;;15.20;70.60;;;;;;5057620;28;19915;-74
2021/05/26 12:48:57;;;;;;;;;;;15.10;70.50;;;;;;5077156;28;19904;-74
2021/05/26 12:51:23;;;;;;;;;;;15.10;70.70;;;;;;5058735;28;19908;-73
2021/05/26 12:53:55;;;;;;;;;;;15.10;70.40;;;;;;5076717;28;19911;-74
2021/05/26 12:56:24;;;;;;;;;;;15.20;70.20;;;;;;5058593;28;19912;-74
2021/05/26 12:58:49;;;;;;;;;;;15.30;70.50;;;;;;5076675;28;19989;-74
2021/05/26 13:01:15;;;;;;;;;;;15.40;70.20;;;;;;5058472;28;19955;-74
2021/05/26 13:03:41;;;;;;;;;;;15.50;69.30;;;;;;5058465;28;19904;-74
2021/05/26 13:06:13;;;;;;;;;;;15.60;68.90;;;;;;5058443;28;19944;-73
2021/05/26 13:08:44;;;;;;;;;;;15.70;68.40;;;;;;5076959;28;19942;-74
2021/05/26 13:11:09;;;;;;;;;;;15.70;68.10;;;;;;5076351;28;19984;-74
2021/05/26 13:13:35;;;;;;;;;;;15.80;67.90;;;;;;5058307;28;19904;-73
2021/05/26 13:16:10;;;;;;;;;;;15.90;66.70;;;;;;5058248;28;19904;-74
2021/05/26 13:18:37;;;;;;;;;;;15.90;64.00;;;;;;5076084;28;19904;-74
2021/05/26 13:21:03;;;;;;;;;;;15.80;63.90;;;;;;5076750;28;20298;-74
2021/05/26 13:23:29;;;;;;;;;;;15.80;63.50;;;;;;5058085;28;19905;-74
2021/05/26 13:25:55;;;;;;;;;;;15.70;62.30;;;;;;5058028;28;19930;-74
2021/05/26 13:28:22;;;;;;;;;;;15.60;62.60;;;;;;5076059;28;19904;-73
2021/05/26 13:30:48;;;;;;;;;;;15.60;63.00;;;;;;5076192;28;20388;-74
2021/05/26 13:33:15;;;;;;;;;;;15.50;61.90;;;;;;5058008;28;19994;-74
2021/05/26 13:35:40;;;;;;;;;;;15.60;61.70;;;;;;5057902;28;19912;-74
2021/05/26 13:38:07;;;;;;;;;;;15.50;61.50;;;;;;5057457;28;19916;-74
2021/05/26 13:40:34;;;;;;;;;;;15.50;62.60;;;;;;5075612;28;20406;-74
2021/05/26 13:43:00;;;;;;;;;;;15.50;62.10;;;;;;5057860;28;20378;-73
2021/05/26 13:45:26;;;;;;;;;;;15.60;63.20;;;;;;5075739;28;19904;-74
2021/05/26 13:47:52;;;;;;;;;;;15.70;61.10;;;;;;5075647;28;20297;-73
2021/05/26 13:50:19;;;;;;;;;;;15.70;61.10;;;;;;5075669;28;19950;-73
2021/05/26 13:52:49;;;;;;;;;;;15.80;60.00;;;;;;5075577;28;19905;-74
2021/05/26 13:55:15;;;;;;;;;;;15.90;59.70;;;;;;5057583;28;19958;-74
2021/05/26 13:57:41;;;;;;;;;;;16.00;59.60;;;;;;5075044;28;19955;-73
2021/05/26 14:00:08;;;;;;;;;;;16.00;59.60;;;;;;5075336;28;19934;-73
2021/05/26 14:02:33;;;;;;;;;;;15.90;59.00;;;;;;5075380;28;19904;-73
2021/05/26 14:04:59;;;;;;;;;;;15.90;58.80;;;;;;5075149;28;19908;-74
2021/05/26 14:07:24;;;;;;;;;;;15.90;58.30;;;;;;5075217;28;19920;-73
2021/05/26 14:09:50;;;;;;;;;;;16.10;57.80;;;;;;5075100;28;19904;-73
2021/05/26 14:12:15;;;;;;;;;;;16.30;57.50;;;;;;5075061;28;19908;-74
2021/05/26 14:14:42;;;;;;;;;;;16.50;57.80;;;;;;5057042;28;20260;-74